地図

経路データ

SID SEASON NUMBER BASIN SUBBASIN NAME ISO_TIME NATURE LAT LON WMO_WIND WMO_PRES WMO_AGENCY TRACK_TYPE DIST2LAND LANDFALL IFLAG USA_AGENCY USA_ATCF_ID USA_LAT USA_LON USA_RECORD USA_STATUS USA_WIND USA_PRES USA_SSHS USA_R34_NE USA_R34_SE USA_R34_SW USA_R34_NW USA_R50_NE USA_R50_SE USA_R50_SW USA_R50_NW USA_R64_NE USA_R64_SE USA_R64_SW USA_R64_NW USA_POCI USA_ROCI USA_RMW USA_EYE TOKYO_LAT TOKYO_LON TOKYO_GRADE TOKYO_WIND TOKYO_PRES TOKYO_R50_DIR TOKYO_R50_LONG TOKYO_R50_SHORT TOKYO_R30_DIR TOKYO_R30_LONG TOKYO_R30_SHORT TOKYO_LAND CMA_LAT CMA_LON CMA_CAT CMA_WIND CMA_PRES HKO_LAT HKO_LON HKO_CAT HKO_WIND HKO_PRES NEWDELHI_LAT NEWDELHI_LON NEWDELHI_GRADE NEWDELHI_WIND NEWDELHI_PRES NEWDELHI_CI NEWDELHI_DP NEWDELHI_POCI REUNION_LAT REUNION_LON REUNION_TYPE REUNION_WIND REUNION_PRES REUNION_TNUM REUNION_CI REUNION_RMW REUNION_R34_NE REUNION_R34_SE REUNION_R34_SW REUNION_R34_NW REUNION_R50_NE REUNION_R50_SE REUNION_R50_SW REUNION_R50_NW REUNION_R64_NE REUNION_R64_SE REUNION_R64_SW REUNION_R64_NW BOM_LAT BOM_LON BOM_TYPE BOM_WIND BOM_PRES BOM_TNUM BOM_CI BOM_RMW BOM_R34_NE BOM_R34_SE BOM_R34_SW BOM_R34_NW BOM_R50_NE BOM_R50_SE BOM_R50_SW BOM_R50_NW BOM_R64_NE BOM_R64_SE BOM_R64_SW BOM_R64_NW BOM_ROCI BOM_POCI BOM_EYE BOM_POS_METHOD BOM_PRES_METHOD NADI_LAT NADI_LON NADI_CAT NADI_WIND NADI_PRES WELLINGTON_LAT WELLINGTON_LON WELLINGTON_WIND WELLINGTON_PRES DS824_LAT DS824_LON DS824_STAGE DS824_WIND DS824_PRES TD9636_LAT TD9636_LON TD9636_STAGE TD9636_WIND TD9636_PRES TD9635_LAT TD9635_LON TD9635_WIND TD9635_PRES TD9635_ROCI NEUMANN_LAT NEUMANN_LON NEUMANN_CLASS NEUMANN_WIND NEUMANN_PRES MLC_LAT MLC_LON MLC_CLASS MLC_WIND MLC_PRES USA_GUST BOM_GUST BOM_GUST_PER REUNION_GUST REUNION_GUST_PER USA_SEAHGT USA_SEARAD_NE USA_SEARAD_SE USA_SEARAD_SW USA_SEARAD_NW STORM_SPEED STORM_DIR
1992039S14063 1992 8 SI MM CELESTA 1992-02-08 06:00:00 TS -13.7000 62.5000 20 1003 reunion main 879 836 _____O________ -1 -13.7000 62.5000 2 20 1003 9.90000 1.50000 8 190
1992039S14063 1992 8 SI MM CELESTA 1992-02-08 09:00:00 TS -14.0800 62.4301 main 836 800 _____P________ -1 -14.0800 62.4301 2 22 1002 8 187
1992039S14063 1992 8 SI MM CELESTA 1992-02-08 12:00:00 TS -14.5000 62.4000 24 1001 reunion main 800 766 _____O________ -1 -14.5000 62.4000 2 24 1001 9.90000 2.00000 9 0
1992039S14063 1992 8 SI MM CELESTA 1992-02-08 15:00:00 TS -14.9850 62.4349 main 757 691 _____P________ -1 -14.9850 62.4349 2 24 1000 14 0
1992039S14063 1992 8 SI MM CELESTA 1992-02-08 18:00:00 TS -15.8667 62.4000 24 1000 reunion main 683 637 O____O______O_ jtwc_sh SH151992 -16.6000 62.2000 20 -1 -15.5000 62.5000 2 24 1000 9.90000 2.00000 -16.6000 62.2000 TC 20 14 190
1992039S14063 1992 8 SI MM CELESTA 1992-02-08 21:00:00 TS -16.3451 62.1763 main 637 592 P____P______P_ SH151992 -16.6602 61.8249 20 -1 -16.0300 62.5276 2 24 999 -16.6602 61.8249 TC 20 9 208
1992039S14063 1992 8 SI MM CELESTA 1992-02-09 00:00:00 TS -16.6800 61.9400 25 999 reunion main 583 554 O____O______O_ jtwc_sh SH151992 -16.8000 61.5000 20 -1 -16.5000 62.6000 2 25 999 9.90000 2.00000 -16.8000 61.5000 TC 20 8 211
1992039S14063 1992 8 SI MM CELESTA 1992-02-09 03:00:00 TS -16.9899 61.7735 main 554 533 P____P______P_ SH151992 -17.0699 61.2752 20 -1 -16.8300 62.7700 2 26 998 -17.0699 61.2752 TC 20 6 192
1992039S14063 1992 8 SI MM CELESTA 1992-02-09 06:00:00 TS -17.3000 61.8000 27 998 reunion main 533 523 O____O______O_ jtwc_sh SH151992 -17.4000 61.2000 20 -1 -17.1000 63.0000 2 27 998 9.90000 2.50000 -17.4000 61.2000 TC 20 6 166
1992039S14063 1992 8 SI MM CELESTA 1992-02-09 09:00:00 TS -17.5999 61.9358 main 523 520 P____P______P_ SH151992 -17.7074 61.2675 20 -1 -17.3851 63.2724 2 27 997 -17.7074 61.2675 TC 20 7 150
1992039S14063 1992 8 SI MM CELESTA 1992-02-09 12:00:00 TS -17.9000 62.1667 28 997 reunion main 533 528 O____O______O_ jtwc_sh SH151992 -18.0000 61.5000 20 -1 -17.7000 63.5000 2 28 997 9.90000 2.50000 -18.0000 61.5000 TC 20 8 142
1992039S14063 1992 8 SI MM CELESTA 1992-02-09 15:00:00 TS -18.1900 62.4252 main 536 536 P____P______P_ SH151992 -18.2500 61.8551 22 -1 -18.0699 63.5653 2 28 997 -18.2500 61.8551 TC 22 8 138
1992039S14063 1992 8 SI MM CELESTA 1992-02-09 18:00:00 TS -18.5000 62.7333 28 997 reunion main 551 551 O____O______O_ jtwc_sh SH151992 -18.5000 62.3000 25 -1 -18.5000 63.6000 2 28 997 9.90000 2.50000 -18.5000 62.3000 TC 25 9 139
1992039S14063 1992 8 SI MM CELESTA 1992-02-09 21:00:00 TS -18.8590 63.0436 main 566 566 P____P______P_ SH151992 -18.7923 62.7277 25 -1 -18.9922 63.6754 2 29 996 -18.7923 62.7277 TC 25 10 138
1992039S14063 1992 8 SI MM CELESTA 1992-02-10 00:00:00 TS -19.2333 63.4333 31 995 reunion main 598 598 O____O______O_ jtwc_sh SH151992 -19.1000 63.2000 25 -1 -19.5000 63.9000 2 31 995 9.90000 2.50000 -19.1000 63.2000 TC 25 11 130
1992039S14063 1992 8 SI MM CELESTA 1992-02-10 03:00:00 TS -19.5658 63.9437 main 642 642 P____P______P_ SH151992 -19.3849 63.7278 27 -1 -19.9276 64.3754 2 31 995 -19.3849 63.7278 TC 27 13 124
1992039S14063 1992 8 SI MM CELESTA 1992-02-10 06:00:00 TS -19.9333 64.5333 31 995 reunion main 700 700 O____O______O_ jtwc_sh SH151992 -19.7000 64.3000 30 -1 -20.4000 65.0000 2 31 995 9.90000 2.50000 -19.7000 64.3000 TC 30 14 126
1992039S14063 1992 8 SI MM CELESTA 1992-02-10 09:00:00 TS -20.4018 65.1672 main 771 771 P____P______P_ SH151992 -20.0850 64.9075 30 -1 -21.0354 65.6867 2 31 995 -20.0850 64.9075 TC 30 15 130
1992039S14063 1992 8 SI MM CELESTA 1992-02-10 12:00:00 TS -20.9000 65.7667 31 995 reunion main 835 835 O____O______O_ jtwc_sh SH151992 -20.5000 65.5000 30 -1 -21.7000 66.3000 2 31 995 9.90000 2.50000 -20.5000 65.5000 TC 30 14 134
1992039S14063 1992 8 SI MM CELESTA 1992-02-10 15:00:00 TS -21.3722 66.2354 main 881 881 P____P______P_ SH151992 -20.9072 66.0153 30 -1 -22.3021 66.6756 2 33 993 -20.9072 66.0153 TC 30 12 138
1992039S14063 1992 8 SI MM CELESTA 1992-02-10 18:00:00 TS -21.8000 66.6333 36 991 reunion main 928 928 O____O______O_ jtwc_sh SH151992 -21.3000 66.5000 30 -1 -22.8000 66.9000 3 36 991 9.90000 3.00000 -21.3000 66.5000 TC 30 11 136
1992039S14063 1992 8 SI MM CELESTA 1992-02-10 21:00:00 TS -22.1432 67.0246 main 974 974 P____P______P_ SH151992 -21.6498 67.0004 32 -1 -23.1299 67.0729 3 39 988 -21.6498 67.0004 TC 32 10 133
1992039S14063 1992 8 SI MM CELESTA 1992-02-11 00:00:00 TS -22.4667 67.4000 43 985 reunion main 1023 1023 O____O______O_ jtwc_sh SH151992 -22.0000 67.5000 35 0 -23.4000 67.2000 3 43 985 9.90000 3.50000 -22.0000 67.5000 TC 35 10 135
1992039S14063 1992 8 SI MM CELESTA 1992-02-11 03:00:00 TS -22.8550 67.8008 main 1073 1073 P____P______P_ SH151992 -22.3926 68.0299 37 0 -23.7800 67.3425 3 43 985 -22.3926 68.0299 TC 37 10 137
1992039S14063 1992 8 SI MM CELESTA 1992-02-11 06:00:00 TS -23.2333 68.1667 43 985 reunion main 1121 1121 O____O______O_ jtwc_sh SH151992 -22.8000 68.5000 40 0 -24.1000 67.5000 3 43 985 9.90000 3.50000 -22.8000 68.5000 TC 40 10 138
1992039S14063 1992 8 SI MM CELESTA 1992-02-11 09:00:00 TS -23.5583 68.4983 main 1162 1162 P____P______P_ SH151992 -23.1999 68.8899 42 0 -24.2751 67.7150 3 42 986 -23.1999 68.8899 TC 42 8 141
1992039S14063 1992 8 SI MM CELESTA 1992-02-11 12:00:00 TS -23.8333 68.7000 41 987 reunion main 1188 1188 O____O______O_ jtwc_sh SH151992 -23.6000 69.1000 45 0 -24.3000 67.9000 3 41 987 9.90000 3.50000 -23.6000 69.1000 TC 45 6 157
1992039S14063 1992 8 SI MM CELESTA 1992-02-11 15:00:00 TS -24.1072 68.7504 main 1208 1196 P____P______P_ SH151992 -24.0671 69.1280 45 0 -24.1874 67.9951 3 38 989 -24.0671 69.1280 TC 45 4 192
1992039S14063 1992 8 SI MM CELESTA 1992-02-11 18:00:00 TS -24.2667 68.6000 36 991 reunion main 1196 1168 O____O______O_ jtwc_sh SH151992 -24.4000 68.9000 45 0 -24.0000 68.0000 3 36 991 9.90000 3.00000 -24.4000 68.9000 TC 45 5 251
1992039S14063 1992 8 SI MM CELESTA 1992-02-11 21:00:00 TS -24.2712 68.2401 main 1158 1112 P____P______P_ SH151992 -24.4781 68.3876 45 0 -23.8574 67.9451 3 33 993 -24.4781 68.3876 TC 45 7 283
1992039S14063 1992 8 SI MM CELESTA 1992-02-12 00:00:00 TS -24.1000 67.8000 31 995 reunion main 1112 1072 O____O______O_ jtwc_sh SH151992 -24.3000 67.8000 45 0 -23.7000 67.8000 2 31 995 9.90000 2.50000 -24.3000 67.8000 TC 45 8 304
1992039S14063 1992 8 SI MM CELESTA 1992-02-12 03:00:00 TS -23.7956 67.4784 main 1072 1029 P____P______P_ SH151992 -23.9322 67.4200 45 0 -23.5224 67.5952 2 31 995 -23.9322 67.4200 TC 45 9 322
1992039S14063 1992 8 SI MM CELESTA 1992-02-12 06:00:00 TS -23.3667 67.1667 31 995 reunion main 1029 974 O____O______O_ jtwc_sh SH151992 -23.4000 67.1000 45 0 -23.3000 67.3000 2 31 995 9.90000 2.00000 -23.4000 67.1000 TC 45 11 326
1992039S14063 1992 8 SI MM CELESTA 1992-02-12 09:00:00 TS -22.8842 66.7975 main 974 930 P____P______P_ SH151992 -22.8149 66.7501 42 0 -23.0227 66.8923 2 31 995 -22.8149 66.7501 TC 42 12 326
1992039S14063 1992 8 SI MM CELESTA 1992-02-12 12:00:00 TS -22.3667 66.4333 31 995 reunion main 920 879 O____O______O_ jtwc_sh SH151992 -22.2000 66.4000 40 0 -22.7000 66.5000 2 31 995 9.90000 2.00000 -22.2000 66.4000 TC 40 12 327
1992039S14063 1992 8 SI MM CELESTA 1992-02-12 15:00:00 TS -21.8858 66.1060 main 879 851 P____P______P_ SH151992 -21.6500 66.0428 37 0 -22.3574 66.2325 2 -21.6500 66.0428 TC 37 11 330
1992039S14063 1992 8 SI MM CELESTA 1992-02-12 18:00:00 TS -21.4600 65.8600 reunion main 851 836 O____O______O_ jtwc_sh SH151992 -21.1000 65.7000 35 0 -22.0000 66.1000 2 9.90000 -21.1000 65.7000 TC 35 9 338
1992039S14063 1992 8 SI MM CELESTA 1992-02-12 21:00:00 TS -21.0738 65.7549 main 836 825 P____P______P_ SH151992 -20.5126 65.3895 32 -1 -21.6350 66.1203 2 -20.5126 65.3895 TC 32 6 359
1992039S14063 1992 8 SI MM CELESTA 1992-02-13 00:00:00 TS -20.8333 65.8333 reunion main 834 834 O____O______O_ jtwc_sh SH151992 -19.9000 65.1000 30 -1 -21.3000 66.2000 2 9.90000 -19.9000 65.1000 TC 30 4 83
1992039S14063 1992 8 SI MM CELESTA 1992-02-13 03:00:00 TS -21.0200 66.1999 main 877 876 _____P________ SH151992 -1 -21.0200 66.1999 2 TC 3 84
1992039S14063 1992 8 SI MM CELESTA 1992-02-13 06:00:00 TS -20.8000 66.2000 reunion main 876 875 _____O________ -1 -20.8000 66.2000 6 9.90000 4 7
1992039S14063 1992 8 SI MM CELESTA 1992-02-13 09:00:00 TS -20.6350 66.2425 main 875 875 _____P________ -1 -20.6350 66.2425 6 3 17
1992039S14063 1992 8 SI MM CELESTA 1992-02-13 12:00:00 TS -20.5000 66.3000 reunion main 885 885 _____O________ -1 -20.5000 66.3000 6 9.90000 3 20
1992039S14063 1992 8 SI MM CELESTA 1992-02-13 15:00:00 TS -20.3500 66.3575 main 896 896 _____P________ -1 -20.3500 66.3575 6 3 17
1992039S14063 1992 8 SI MM CELESTA 1992-02-13 18:00:00 TS -20.2000 66.4000 reunion main 897 897 _____O________ -1 -20.2000 66.4000 6 9.90000 3 9
1992039S14063 1992 8 SI MM CELESTA 1992-02-13 21:00:00 TS -20.0500 66.4100 main 898 897 _____P________ -1 -20.0500 66.4100 6 3 0
1992039S14063 1992 8 SI MM CELESTA 1992-02-14 00:00:00 TS -19.9000 66.4000 reunion main 898 _____O________ -1 -19.9000 66.4000 6 9.90000 3 0

IBTrACS Databaseについて

本データベースは、米国NOAAが公開する1842年以降の世界の熱帯低気圧のベストトラックデータアーカイブInternational Best Track Archive for Climate Stewardship (IBTrACS)を、ウェブで閲覧しやすい形式に変換したものです。

最終更新日:2021-12-03